Station Historical Data
Daily Summary for July 30, 2012 Units:  Both    English   Metric
« Previous Day
Next Day »
Daily Weekly Monthly Yearly Custom
  High: Low: Average:
Temperature: 90.4 °F /  32.4 °C 68.5 °F /  20.3 °C 78.2 °F /  25.7 °C
Dew Point: 77.9 °F /  25.5 °C 66.1 °F /  18.9 °C 71.9 °F /  22.2 °C
Humidity: 93% 64% 82%
Wind Speed: 9.0mph /  14.5km/h - 2.3mph /  3.7km/h
Wind Gust: 12.0mph /  19.3km/h - -
Wind- - SSE
Pressure: 29.97 in /  1014.8 hPa 29.82 in /  1009.7 hPa -
Precipitation: 0.01 in /  0.25 mm    
Historical Graphs
 
 
Tabular Data for July 30, 2012
Time Temperature Dew Point Pressure Wind Wind Speed Wind Gust Humidity Rainfall Rate (Hourly) Conditions
00:00 70.1 °F /  21.2 °C 68.0 °F /  20 °C 29.96in /  1014.4hPa Calm   1.0mph /  1.6km/h 93% 0.00in /  0mm
00:05 70.1 °F /  21.2 °C 68.0 °F /  20 °C 29.96in /  1014.4hPa Calm     93% 0.00in /  0mm
00:10 70.0 °F /  21.1 °C 67.9 °F /  19.9 °C 29.96in /  1014.4hPa NNE 1.0mph /  1.6km/h 2.0mph /  3.2km/h 93% 0.00in /  0mm
00:15 70.1 °F /  21.2 °C 68.0 °F /  20 °C 29.96in /  1014.4hPa NNE 1.0mph /  1.6km/h 2.0mph /  3.2km/h 93% 0.00in /  0mm
00:20 70.2 °F /  21.2 °C 67.8 °F /  19.9 °C 29.96in /  1014.4hPa NNE 1.0mph /  1.6km/h 1.0mph /  1.6km/h 92% 0.00in /  0mm
00:26 70.2 °F /  21.2 °C 67.8 °F /  19.9 °C 29.96in /  1014.4hPa NNE 1.0mph /  1.6km/h 2.0mph /  3.2km/h 92% 0.00in /  0mm
00:31 70.2 °F /  21.2 °C 67.8 °F /  19.9 °C 29.96in /  1014.4hPa NNE 2.0mph /  3.2km/h 2.0mph /  3.2km/h 92% 0.00in /  0mm
00:36 70.2 °F /  21.2 °C 67.8 °F /  19.9 °C 29.96in /  1014.4hPa Calm   2.0mph /  3.2km/h 92% 0.00in /  0mm
00:41 70.2 °F /  21.2 °C 67.8 °F /  19.9 °C 29.96in /  1014.4hPa North 1.0mph /  1.6km/h 2.0mph /  3.2km/h 92% 0.00in /  0mm
00:46 70.3 °F /  21.3 °C 67.9 °F /  19.9 °C 29.96in /  1014.4hPa Calm   1.0mph /  1.6km/h 92% 0.00in /  0mm
00:51 70.1 °F /  21.2 °C 67.7 °F /  19.8 °C 29.96in /  1014.4hPa Calm   1.0mph /  1.6km/h 92% 0.00in /  0mm
00:56 69.9 °F /  21.1 °C 67.8 °F /  19.9 °C 29.95in /  1014.1hPa Calm     93% 0.00in /  0mm
01:01 69.8 °F /  21 °C 67.7 °F /  19.8 °C 29.95in /  1014.1hPa Calm     93% 0.00in /  0mm
01:06 69.7 °F /  20.9 °C 67.6 °F /  19.8 °C 29.95in /  1014.1hPa Calm     93% 0.00in /  0mm
01:12 69.6 °F /  20.9 °C 67.5 °F /  19.7 °C 29.95in /  1014.1hPa Calm     93% 0.00in /  0mm
01:17 69.6 °F /  20.9 °C 67.5 °F /  19.7 °C 29.95in /  1014.1hPa Calm     93% 0.00in /  0mm
01:22 69.7 °F /  20.9 °C 67.6 °F /  19.8 °C 29.95in /  1014.1hPa Calm     93% 0.00in /  0mm
01:27 69.6 °F /  20.9 °C 67.5 °F /  19.7 °C 29.94in /  1013.8hPa Calm     93% 0.00in /  0mm
01:32 69.5 °F /  20.8 °C 67.4 °F /  19.7 °C 29.94in /  1013.8hPa Calm     93% 0.00in /  0mm
01:37 69.4 °F /  20.8 °C 67.3 °F /  19.6 °C 29.94in /  1013.8hPa Calm     93% 0.00in /  0mm
01:42 69.3 °F /  20.7 °C 67.2 °F /  19.6 °C 29.94in /  1013.8hPa Calm     93% 0.00in /  0mm
01:47 69.2 °F /  20.7 °C 67.1 °F /  19.5 °C 29.94in /  1013.8hPa Calm     93% 0.00in /  0mm
01:52 69.3 °F /  20.7 °C 67.2 °F /  19.6 °C 29.94in /  1013.8hPa Calm     93% 0.00in /  0mm
01:57 69.1 °F /  20.6 °C 67.0 °F /  19.4 °C 29.94in /  1013.8hPa Calm     93% 0.00in /  0mm
02:02 69.0 °F /  20.6 °C 66.9 °F /  19.4 °C 29.94in /  1013.8hPa Calm     93% 0.00in /  0mm
02:07 69.0 °F /  20.6 °C 66.9 °F /  19.4 °C 29.94in /  1013.8hPa Calm     93% 0.00in /  0mm
02:12 69.0 °F /  20.6 °C 66.9 °F /  19.4 °C 29.94in /  1013.8hPa Calm     93% 0.00in /  0mm
02:17 69.0 °F /  20.6 °C 66.9 °F /  19.4 °C 29.94in /  1013.8hPa Calm     93% 0.00in /  0mm
02:22 69.0 °F /  20.6 °C 66.9 °F /  19.4 °C 29.94in /  1013.8hPa Calm     93% 0.00in /  0mm
02:27 68.9 °F /  20.5 °C 66.8 °F /  19.3 °C 29.94in /  1013.8hPa Calm     93% 0.00in /  0mm
02:32 68.8 °F /  20.4 °C 66.7 °F /  19.3 °C 29.94in /  1013.8hPa Calm     93% 0.00in /  0mm
02:37 68.8 °F /  20.4 °C 66.7 °F /  19.3 °C 29.93in /  1013.4hPa Calm     93% 0.00in /  0mm
02:42 68.8 °F /  20.4 °C 66.7 °F /  19.3 °C 29.94in /  1013.8hPa Calm     93% 0.00in /  0mm
02:47 68.8 °F /  20.4 °C 66.7 °F /  19.3 °C 29.93in /  1013.4hPa Calm     93% 0.00in /  0mm
02:52 68.7 °F /  20.4 °C 66.6 °F /  19.2 °C 29.93in /  1013.4hPa Calm     93% 0.00in /  0mm
02:57 68.7 °F /  20.4 °C 66.6 °F /  19.2 °C 29.93in /  1013.4hPa Calm     93% 0.00in /  0mm
03:02 68.7 °F /  20.4 °C 66.6 °F /  19.2 °C 29.93in /  1013.4hPa Calm     93% 0.00in /  0mm
03:07 68.8 °F /  20.4 °C 66.7 °F /  19.3 °C 29.93in /  1013.4hPa Calm     93% 0.00in /  0mm
03:12 68.9 °F /  20.5 °C 66.8 °F /  19.3 °C 29.93in /  1013.4hPa Calm     93% 0.00in /  0mm
03:17 68.9 °F /  20.5 °C 66.8 °F /  19.3 °C 29.93in /  1013.4hPa Calm     93% 0.00in /  0mm
03:22 68.9 °F /  20.5 °C 66.8 °F /  19.3 °C 29.93in /  1013.4hPa Calm     93% 0.00in /  0mm
03:27 69.0 °F /  20.6 °C 66.9 °F /  19.4 °C 29.93in /  1013.4hPa Calm     93% 0.00in /  0mm
03:32 69.1 °F /  20.6 °C 67.0 °F /  19.4 °C 29.92in /  1013.1hPa ENE 1.0mph /  1.6km/h 1.0mph /  1.6km/h 93% 0.00in /  0mm
03:37 69.2 °F /  20.7 °C 66.8 °F /  19.3 °C 29.92in /  1013.1hPa NNW 1.0mph /  1.6km/h 1.0mph /  1.6km/h 92% 0.00in /  0mm
03:42 69.1 °F /  20.6 °C 66.7 °F /  19.3 °C 29.92in /  1013.1hPa Calm   1.0mph /  1.6km/h 92% 0.00in /  0mm
03:47 69.1 °F /  20.6 °C 66.7 °F /  19.3 °C 29.92in /  1013.1hPa Calm     92% 0.00in /  0mm
03:52 69.0 °F /  20.6 °C 66.6 °F /  19.2 °C 29.92in /  1013.1hPa Calm     92% 0.00in /  0mm
03:57 68.8 °F /  20.4 °C 66.4 °F /  19.1 °C 29.92in /  1013.1hPa Calm     92% 0.00in /  0mm
04:03 68.9 °F /  20.5 °C 66.8 °F /  19.3 °C 29.92in /  1013.1hPa Calm   1.0mph /  1.6km/h 93% 0.00in /  0mm
04:08 68.8 °F /  20.4 °C 66.4 °F /  19.1 °C 29.92in /  1013.1hPa NNW 1.0mph /  1.6km/h 1.0mph /  1.6km/h 92% 0.00in /  0mm
04:13 68.7 °F /  20.4 °C 66.6 °F /  19.2 °C 29.92in /  1013.1hPa Calm   1.0mph /  1.6km/h 93% 0.00in /  0mm
04:18 68.7 °F /  20.4 °C 66.6 °F /  19.2 °C 29.92in /  1013.1hPa Calm   1.0mph /  1.6km/h 93% 0.00in /  0mm
04:23 68.7 °F /  20.4 °C 66.6 °F /  19.2 °C 29.92in /  1013.1hPa NNE 1.0mph /  1.6km/h 1.0mph /  1.6km/h 93% 0.00in /  0mm
04:28 68.7 °F /  20.4 °C 66.6 °F /  19.2 °C 29.92in /  1013.1hPa NNE 1.0mph /  1.6km/h 2.0mph /  3.2km/h 93% 0.00in /  0mm
04:33 68.6 °F /  20.3 °C 66.5 °F /  19.2 °C 29.92in /  1013.1hPa Calm   1.0mph /  1.6km/h 93% 0.00in /  0mm
04:38 68.6 °F /  20.3 °C 66.5 °F /  19.2 °C 29.92in /  1013.1hPa NNE 1.0mph /  1.6km/h 1.0mph /  1.6km/h 93% 0.00in /  0mm
04:43 68.7 °F /  20.4 °C 66.6 °F /  19.2 °C 29.92in /  1013.1hPa NNE 1.0mph /  1.6km/h 1.0mph /  1.6km/h 93% 0.00in /  0mm
04:48 68.8 °F /  20.4 °C 66.7 °F /  19.3 °C 29.92in /  1013.1hPa NNE 1.0mph /  1.6km/h 2.0mph /  3.2km/h 93% 0.00in /  0mm
04:53 68.9 °F /  20.5 °C 66.8 °F /  19.3 °C 29.92in /  1013.1hPa Calm   1.0mph /  1.6km/h 93% 0.00in /  0mm
04:58 69.0 °F /  20.6 °C 66.9 °F /  19.4 °C 29.91in /  1012.8hPa Calm     93% 0.00in /  0mm
05:03 69.0 °F /  20.6 °C 66.6 °F /  19.2 °C 29.92in /  1013.1hPa Calm     92% 0.00in /  0mm
05:08 68.8 °F /  20.4 °C 66.4 °F /  19.1 °C 29.92in /  1013.1hPa Calm     92% 0.00in /  0mm
05:13 68.6 °F /  20.3 °C 66.5 °F /  19.2 °C 29.92in /  1013.1hPa Calm   1.0mph /  1.6km/h 93% 0.00in /  0mm
05:18 68.6 °F /  20.3 °C 66.5 °F /  19.2 °C 29.92in /  1013.1hPa Calm   1.0mph /  1.6km/h 93% 0.00in /  0mm
05:23 68.6 °F /  20.3 °C 66.5 °F /  19.2 °C 29.91in /  1012.8hPa Calm     93% 0.00in /  0mm
05:28 68.6 °F /  20.3 °C 66.5 °F /  19.2 °C 29.92in /  1013.1hPa Calm   1.0mph /  1.6km/h 93% 0.00in /  0mm
05:33 68.6 °F /  20.3 °C 66.5 °F /  19.2 °C 29.92in /  1013.1hPa Calm     93% 0.00in /  0mm
05:38 68.6 °F /  20.3 °C 66.2 °F /  19 °C 29.92in /  1013.1hPa Calm     92% 0.00in /  0mm
05:43 68.5 °F /  20.3 °C 66.1 °F /  18.9 °C 29.92in /  1013.1hPa Calm     92% 0.00in /  0mm
05:48 68.6 °F /  20.3 °C 66.2 °F /  19 °C 29.92in /  1013.1hPa Calm   1.0mph /  1.6km/h 92% 0.00in /  0mm
05:53 68.8 °F /  20.4 °C 66.4 °F /  19.1 °C 29.92in /  1013.1hPa Calm   1.0mph /  1.6km/h 92% 0.00in /  0mm
05:58 69.0 °F /  20.6 °C 66.6 °F /  19.2 °C 29.92in /  1013.1hPa East 1.0mph /  1.6km/h 1.0mph /  1.6km/h 92% 0.00in /  0mm
06:03 69.3 °F /  20.7 °C 66.9 °F /  19.4 °C 29.92in /  1013.1hPa ESE 1.0mph /  1.6km/h 2.0mph /  3.2km/h 92% 0.00in /  0mm
06:08 69.4 °F /  20.8 °C 66.7 °F /  19.3 °C 29.92in /  1013.1hPa East 2.0mph /  3.2km/h 2.0mph /  3.2km/h 91% 0.00in /  0mm
06:13 69.4 °F /  20.8 °C 66.7 °F /  19.3 °C 29.92in /  1013.1hPa Calm   2.0mph /  3.2km/h 91% 0.00in /  0mm
06:18 69.3 °F /  20.7 °C 66.6 °F /  19.2 °C 29.92in /  1013.1hPa SE 1.0mph /  1.6km/h 2.0mph /  3.2km/h 91% 0.00in /  0mm
06:23 69.2 °F /  20.7 °C 66.8 °F /  19.3 °C 29.92in /  1013.1hPa ESE 1.0mph /  1.6km/h 2.0mph /  3.2km/h 92% 0.00in /  0mm
06:28 69.1 °F /  20.6 °C 66.7 °F /  19.3 °C 29.92in /  1013.1hPa Calm   1.0mph /  1.6km/h 92% 0.00in /  0mm
06:33 69.2 °F /  20.7 °C 66.8 °F /  19.3 °C 29.92in /  1013.1hPa Calm   1.0mph /  1.6km/h 92% 0.00in /  0mm
06:38 69.3 °F /  20.7 °C 66.9 °F /  19.4 °C 29.93in /  1013.4hPa Calm     92% 0.00in /  0mm
06:43 69.4 °F /  20.8 °C 67.0 °F /  19.4 °C 29.93in /  1013.4hPa Calm     92% 0.00in /  0mm
06:48 69.4 °F /  20.8 °C 67.0 °F /  19.4 °C 29.93in /  1013.4hPa Calm   1.0mph /  1.6km/h 92% 0.00in /  0mm
06:53 69.3 °F /  20.7 °C 66.9 °F /  19.4 °C 29.93in /  1013.4hPa Calm     92% 0.00in /  0mm
06:58 69.2 °F /  20.7 °C 66.8 °F /  19.3 °C 29.93in /  1013.4hPa Calm     92% 0.00in /  0mm
07:03 69.1 °F /  20.6 °C 66.7 °F /  19.3 °C 29.94in /  1013.8hPa Calm     92% 0.00in /  0mm
07:08 69.0 °F /  20.6 °C 66.6 °F /  19.2 °C 29.94in /  1013.8hPa Calm     92% 0.00in /  0mm
07:13 68.9 °F /  20.5 °C 66.5 °F /  19.2 °C 29.94in /  1013.8hPa Calm     92% 0.00in /  0mm
07:18 68.8 °F /  20.4 °C 66.7 °F /  19.3 °C 29.94in /  1013.8hPa Calm     93% 0.00in /  0mm
07:23 68.7 °F /  20.4 °C 66.6 °F /  19.2 °C 29.95in /  1014.1hPa Calm     93% 0.00in /  0mm
07:28 68.8 °F /  20.4 °C 66.7 °F /  19.3 °C 29.94in /  1013.8hPa Calm     93% 0.00in /  0mm
07:33 69.0 °F /  20.6 °C 66.9 °F /  19.4 °C 29.95in /  1014.1hPa Calm     93% 0.00in /  0mm
07:38 69.2 °F /  20.7 °C 67.1 °F /  19.5 °C 29.95in /  1014.1hPa Calm     93% 0.00in /  0mm
07:43 69.4 °F /  20.8 °C 67.3 °F /  19.6 °C 29.95in /  1014.1hPa Calm     93% 0.00in /  0mm
07:48 69.5 °F /  20.8 °C 67.1 °F /  19.5 °C 29.96in /  1014.4hPa NE 1.0mph /  1.6km/h 1.0mph /  1.6km/h 92% 0.00in /  0mm
07:53 69.6 °F /  20.9 °C 67.5 °F /  19.7 °C 29.96in /  1014.4hPa Calm   1.0mph /  1.6km/h 93% 0.00in /  0mm
07:58 69.9 °F /  21.1 °C 67.8 °F /  19.9 °C 29.96in /  1014.4hPa Calm     93% 0.00in /  0mm
08:03 70.5 °F /  21.4 °C 68.4 °F /  20.2 °C 29.96in /  1014.4hPa Calm     93% 0.00in /  0mm
08:09 71.3 °F /  21.8 °C 68.9 °F /  20.5 °C 29.96in /  1014.4hPa Calm     92% 0.00in /  0mm
08:14 71.8 °F /  22.1 °C 69.3 °F /  20.7 °C 29.97in /  1014.8hPa Calm   1.0mph /  1.6km/h 92% 0.00in /  0mm
08:19 72.2 °F /  22.3 °C 69.4 °F /  20.8 °C 29.96in /  1014.4hPa Calm     91% 0.00in /  0mm
08:24 72.7 °F /  22.6 °C 69.6 °F /  20.9 °C 29.96in /  1014.4hPa Calm   1.0mph /  1.6km/h 90% 0.00in /  0mm
08:29 73.4 °F /  23 °C 70.0 °F /  21.1 °C 29.97in /  1014.8hPa Calm   1.0mph /  1.6km/h 89% 0.00in /  0mm
08:34 74.2 °F /  23.4 °C 70.1 °F /  21.2 °C 29.97in /  1014.8hPa ESE 1.0mph /  1.6km/h 2.0mph /  3.2km/h 87% 0.00in /  0mm
08:39 74.7 °F /  23.7 °C 70.6 °F /  21.4 °C 29.97in /  1014.8hPa SE 1.0mph /  1.6km/h 1.0mph /  1.6km/h 87% 0.00in /  0mm
08:44 75.1 °F /  23.9 °C 71.0 °F /  21.7 °C 29.97in /  1014.8hPa ESE 1.0mph /  1.6km/h 2.0mph /  3.2km/h 87% 0.00in /  0mm
08:49 75.4 °F /  24.1 °C 70.9 °F /  21.6 °C 29.96in /  1014.4hPa ESE 2.0mph /  3.2km/h 3.0mph /  4.8km/h 86% 0.00in /  0mm
08:54 75.5 °F /  24.2 °C 70.7 °F /  21.5 °C 29.97in /  1014.8hPa ESE 3.0mph /  4.8km/h 3.0mph /  4.8km/h 85% 0.00in /  0mm
08:59 75.4 °F /  24.1 °C 70.6 °F /  21.4 °C 29.97in /  1014.8hPa SE 3.0mph /  4.8km/h 3.0mph /  4.8km/h 85% 0.00in /  0mm
09:04 75.2 °F /  24 °C 70.7 °F /  21.5 °C 29.97in /  1014.8hPa SE 1.0mph /  1.6km/h 2.0mph /  3.2km/h 86% 0.00in /  0mm
09:09 75.0 °F /  23.9 °C 70.5 °F /  21.4 °C 29.97in /  1014.8hPa SE 2.0mph /  3.2km/h 2.0mph /  3.2km/h 86% 0.00in /  0mm
09:14 74.8 °F /  23.8 °C 70.3 °F /  21.3 °C 29.97in /  1014.8hPa SE 1.0mph /  1.6km/h 2.0mph /  3.2km/h 86% 0.00in /  0mm
09:19 74.6 °F /  23.7 °C 70.1 °F /  21.2 °C 29.97in /  1014.8hPa SSE 2.0mph /  3.2km/h 3.0mph /  4.8km/h 86% 0.00in /  0mm
09:24 74.5 °F /  23.6 °C 70.0 °F /  21.1 °C 29.97in /  1014.8hPa ESE 3.0mph /  4.8km/h 3.0mph /  4.8km/h 86% 0.00in /  0mm
09:29 74.6 °F /  23.7 °C 70.1 °F /  21.2 °C 29.97in /  1014.8hPa SE 1.0mph /  1.6km/h 3.0mph /  4.8km/h 86% 0.00in /  0mm
09:34 74.6 °F /  23.7 °C 70.5 °F /  21.4 °C 29.97in /  1014.8hPa SE 2.0mph /  3.2km/h 4.0mph /  6.4km/h 87% 0.00in /  0mm
09:39 74.7 °F /  23.7 °C 70.6 °F /  21.4 °C 29.97in /  1014.8hPa SE 2.0mph /  3.2km/h 3.0mph /  4.8km/h 87% 0.00in /  0mm
09:44 74.9 °F /  23.8 °C 70.4 °F /  21.3 °C 29.97in /  1014.8hPa SE 1.0mph /  1.6km/h 4.0mph /  6.4km/h 86% 0.00in /  0mm
09:49 75.0 °F /  23.9 °C 70.9 °F /  21.6 °C 29.97in /  1014.8hPa East 3.0mph /  4.8km/h 3.0mph /  4.8km/h 87% 0.00in /  0mm
09:54 75.4 °F /  24.1 °C 71.3 °F /  21.8 °C 29.97in /  1014.8hPa ESE 3.0mph /  4.8km/h 4.0mph /  6.4km/h 87% 0.00in /  0mm
09:59 76.0 °F /  24.4 °C 71.9 °F /  22.2 °C 29.97in /  1014.8hPa ESE 3.0mph /  4.8km/h 3.0mph /  4.8km/h 87% 0.00in /  0mm
10:04 76.6 °F /  24.8 °C 72.4 °F /  22.4 °C 29.97in /  1014.8hPa Calm   3.0mph /  4.8km/h 87% 0.00in /  0mm
10:09 77.4 °F /  25.2 °C 71.8 °F /  22.1 °C 29.97in /  1014.8hPa SE 4.0mph /  6.4km/h 4.0mph /  6.4km/h 83% 0.00in /  0mm
10:14 77.7 °F /  25.4 °C 71.4 °F /  21.9 °C 29.97in /  1014.8hPa SSE 4.0mph /  6.4km/h 7.0mph /  11.3km/h 81% 0.00in /  0mm
10:19 78.0 °F /  25.6 °C 72.1 °F /  22.3 °C 29.97in /  1014.8hPa SE 4.0mph /  6.4km/h 6.0mph /  9.7km/h 82% 0.00in /  0mm
10:24 78.1 °F /  25.6 °C 71.4 °F /  21.9 °C 29.97in /  1014.8hPa ESE 3.0mph /  4.8km/h 6.0mph /  9.7km/h 80% 0.00in /  0mm
10:29 78.4 °F /  25.8 °C 72.4 °F /  22.4 °C 29.97in /  1014.8hPa SSE 4.0mph /  6.4km/h 6.0mph /  9.7km/h 82% 0.00in /  0mm
10:34 79.0 °F /  26.1 °C 71.9 °F /  22.2 °C 29.96in /  1014.4hPa SSE 3.0mph /  4.8km/h 6.0mph /  9.7km/h 79% 0.00in /  0mm
10:39 78.8 °F /  26 °C 71.4 °F /  21.9 °C 29.96in /  1014.4hPa SW 2.0mph /  3.2km/h 5.0mph /  8km/h 78% 0.00in /  0mm
10:44 78.6 °F /  25.9 °C 71.2 °F /  21.8 °C 29.96in /  1014.4hPa SE 3.0mph /  4.8km/h 4.0mph /  6.4km/h 78% 0.00in /  0mm
10:49 78.5 °F /  25.8 °C 71.1 °F /  21.7 °C 29.96in /  1014.4hPa SE 4.0mph /  6.4km/h 7.0mph /  11.3km/h 78% 0.00in /  0mm
10:55 78.4 °F /  25.8 °C 71.7 °F /  22.1 °C 29.95in /  1014.1hPa SE 4.0mph /  6.4km/h 7.0mph /  11.3km/h 80% 0.00in /  0mm
11:00 78.4 °F /  25.8 °C 71.3 °F /  21.8 °C 29.95in /  1014.1hPa South 5.0mph /  8km/h 7.0mph /  11.3km/h 79% 0.00in /  0mm
11:05 78.4 °F /  25.8 °C 71.7 °F /  22.1 °C 29.95in /  1014.1hPa South 2.0mph /  3.2km/h 7.0mph /  11.3km/h 80% 0.00in /  0mm
11:10 78.3 °F /  25.7 °C 72.0 °F /  22.2 °C 29.95in /  1014.1hPa SSW 1.0mph /  1.6km/h 3.0mph /  4.8km/h 81% 0.00in /  0mm
11:15 78.3 °F /  25.7 °C 71.6 °F /  22 °C 29.95in /  1014.1hPa South 1.0mph /  1.6km/h 5.0mph /  8km/h 80% 0.00in /  0mm
11:20 78.8 °F /  26 °C 72.5 °F /  22.5 °C 29.95in /  1014.1hPa South 1.0mph /  1.6km/h 4.0mph /  6.4km/h 81% 0.00in /  0mm
11:25 79.0 °F /  26.1 °C 72.3 °F /  22.4 °C 29.95in /  1014.1hPa SW 5.0mph /  8km/h 6.0mph /  9.7km/h 80% 0.00in /  0mm
11:30 79.8 °F /  26.6 °C 73.8 °F /  23.2 °C 29.95in /  1014.1hPa South 3.0mph /  4.8km/h 6.0mph /  9.7km/h 82% 0.00in /  0mm
11:35 80.2 °F /  26.8 °C 72.7 °F /  22.6 °C 29.95in /  1014.1hPa SSW 5.0mph /  8km/h 7.0mph /  11.3km/h 78% 0.00in /  0mm
11:40 80.6 °F /  27 °C 72.3 °F /  22.4 °C 29.95in /  1014.1hPa South 9.0mph /  14.5km/h 9.0mph /  14.5km/h 76% 0.00in /  0mm
11:45 80.8 °F /  27.1 °C 71.7 °F /  22.1 °C 29.95in /  1014.1hPa South 4.0mph /  6.4km/h 8.0mph /  12.9km/h 74% 0.00in /  0mm
11:50 81.2 °F /  27.3 °C 74.1 °F /  23.4 °C 29.94in /  1013.8hPa SE 5.0mph /  8km/h 7.0mph /  11.3km/h 79% 0.00in /  0mm
11:55 81.6 °F /  27.6 °C 73.7 °F /  23.2 °C 29.94in /  1013.8hPa SSE 5.0mph /  8km/h 6.0mph /  9.7km/h 77% 0.00in /  0mm
12:00 82.3 °F /  27.9 °C 73.2 °F /  22.9 °C 29.94in /  1013.8hPa South 4.0mph /  6.4km/h 7.0mph /  11.3km/h 74% 0.00in /  0mm
12:05 82.8 °F /  28.2 °C 72.9 °F /  22.7 °C 29.95in /  1014.1hPa SW 7.0mph /  11.3km/h 11.0mph /  17.7km/h 72% 0.00in /  0mm
12:10 82.5 °F /  28.1 °C 72.6 °F /  22.6 °C 29.95in /  1014.1hPa WSW 8.0mph /  12.9km/h 9.0mph /  14.5km/h 72% 0.00in /  0mm
12:15 82.2 °F /  27.9 °C 72.7 °F /  22.6 °C 29.95in /  1014.1hPa SSW 8.0mph /  12.9km/h 9.0mph /  14.5km/h 73% 0.00in /  0mm
12:20 81.9 °F /  27.7 °C 71.6 °F /  22 °C 29.95in /  1014.1hPa SW 5.0mph /  8km/h 7.0mph /  11.3km/h 71% 0.00in /  0mm
12:25 81.5 °F /  27.5 °C 72.0 °F /  22.2 °C 29.94in /  1013.8hPa SSW 4.0mph /  6.4km/h 7.0mph /  11.3km/h 73% 0.00in /  0mm
12:30 81.7 °F /  27.6 °C 72.6 °F /  22.6 °C 29.94in /  1013.8hPa SSW 4.0mph /  6.4km/h 8.0mph /  12.9km/h 74% 0.00in /  0mm
12:35 82.6 °F /  28.1 °C 72.7 °F /  22.6 °C 29.93in /  1013.4hPa SSE 4.0mph /  6.4km/h 7.0mph /  11.3km/h 72% 0.00in /  0mm
12:40 82.8 °F /  28.2 °C 73.3 °F /  22.9 °C 29.94in /  1013.8hPa WSW 7.0mph /  11.3km/h 9.0mph /  14.5km/h 73% 0.00in /  0mm
12:45 83.2 °F /  28.4 °C 73.2 °F /  22.9 °C 29.94in /  1013.8hPa WSW 6.0mph /  9.7km/h 7.0mph /  11.3km/h 72% 0.00in /  0mm
12:50 83.3 °F /  28.5 °C 72.5 °F /  22.5 °C 29.94in /  1013.8hPa SE 6.0mph /  9.7km/h 7.0mph /  11.3km/h 70% 0.00in /  0mm
12:55 83.6 °F /  28.7 °C 73.6 °F /  23.1 °C 29.94in /  1013.8hPa SSE 5.0mph /  8km/h 6.0mph /  9.7km/h 72% 0.00in /  0mm
13:00 83.5 °F /  28.6 °C 72.7 °F /  22.6 °C 29.94in /  1013.8hPa SW 5.0mph /  8km/h 7.0mph /  11.3km/h 70% 0.00in /  0mm
13:05 83.1 °F /  28.4 °C 72.7 °F /  22.6 °C 29.94in /  1013.8hPa SSW 4.0mph /  6.4km/h 8.0mph /  12.9km/h 71% 0.00in /  0mm
13:10 82.7 °F /  28.2 °C 73.2 °F /  22.9 °C 29.93in /  1013.4hPa South 6.0mph /  9.7km/h 8.0mph /  12.9km/h 73% 0.00in /  0mm
13:17 81.8 °F /  27.7 °C 73.5 °F /  23.1 °C 29.93in /  1013.4hPa West 1.0mph /  1.6km/h 7.0mph /  11.3km/h 76% 0.00in /  0mm
13:22 81.4 °F /  27.4 °C 73.9 °F /  23.3 °C 29.92in /  1013.1hPa SW 2.0mph /  3.2km/h 5.0mph /  8km/h 78% 0.00in /  0mm
13:27 81.4 °F /  27.4 °C 74.6 °F /  23.7 °C 29.91in /  1012.8hPa South 3.0mph /  4.8km/h 7.0mph /  11.3km/h 80% 0.00in /  0mm
13:32 81.9 °F /  27.7 °C 74.8 °F /  23.8 °C 29.91in /  1012.8hPa South 4.0mph /  6.4km/h 7.0mph /  11.3km/h 79% 0.00in /  0mm
13:37 81.9 °F /  27.7 °C 74.4 °F /  23.6 °C 29.91in /  1012.8hPa South 2.0mph /  3.2km/h 9.0mph /  14.5km/h 78% 0.00in /  0mm
13:42 82.4 °F /  28 °C 75.2 °F /  24 °C 29.91in /  1012.8hPa SW 5.0mph /  8km/h 6.0mph /  9.7km/h 79% 0.00in /  0mm
13:47 82.5 °F /  28.1 °C 74.6 °F /  23.7 °C 29.91in /  1012.8hPa SW 6.0mph /  9.7km/h 8.0mph /  12.9km/h 77% 0.00in /  0mm
13:52 83.0 °F /  28.3 °C 74.7 °F /  23.7 °C 29.91in /  1012.8hPa South 6.0mph /  9.7km/h 7.0mph /  11.3km/h 76% 0.00in /  0mm
13:57 83.3 °F /  28.5 °C 74.9 °F /  23.8 °C 29.91in /  1012.8hPa SSE 8.0mph /  12.9km/h 8.0mph /  12.9km/h 76% 0.00in /  0mm
14:03 83.2 °F /  28.4 °C 74.8 °F /  23.8 °C 29.91in /  1012.8hPa South 3.0mph /  4.8km/h 9.0mph /  14.5km/h 76% 0.00in /  0mm
14:08 83.7 °F /  28.7 °C 75.3 °F /  24.1 °C 29.90in /  1012.4hPa SE 8.0mph /  12.9km/h 8.0mph /  12.9km/h 76% 0.00in /  0mm
14:13 84.1 °F /  28.9 °C 75.7 °F /  24.3 °C 29.90in /  1012.4hPa SE 7.0mph /  11.3km/h 10.0mph /  16.1km/h 76% 0.00in /  0mm
14:18 84.1 °F /  28.9 °C 74.9 °F /  23.8 °C 29.90in /  1012.4hPa SSW 6.0mph /  9.7km/h 10.0mph /  16.1km/h 74% 0.00in /  0mm
14:23 84.3 °F /  29.1 °C 74.3 °F /  23.5 °C 29.89in /  1012.1hPa WSW 4.0mph /  6.4km/h 12.0mph /  19.3km/h 72% 0.00in /  0mm
14:28 84.4 °F /  29.1 °C 75.6 °F /  24.2 °C 29.89in /  1012.1hPa SW 6.0mph /  9.7km/h 9.0mph /  14.5km/h 75% 0.00in /  0mm
14:33 84.4 °F /  29.1 °C 74.8 °F /  23.8 °C 29.89in /  1012.1hPa SW 7.0mph /  11.3km/h 8.0mph /  12.9km/h 73% 0.00in /  0mm
14:38 84.3 °F /  29.1 °C 74.7 °F /  23.7 °C 29.89in /  1012.1hPa SSW 4.0mph /  6.4km/h 10.0mph /  16.1km/h 73% 0.00in /  0mm
14:43 84.7 °F /  29.3 °C 74.7 °F /  23.7 °C 29.89in /  1012.1hPa SW 5.0mph /  8km/h 8.0mph /  12.9km/h 72% 0.00in /  0mm
14:48 85.3 °F /  29.6 °C 76.1 °F /  24.5 °C 29.89in /  1012.1hPa West 8.0mph /  12.9km/h 8.0mph /  12.9km/h 74% 0.00in /  0mm
14:53 85.2 °F /  29.6 °C 74.7 °F /  23.7 °C 29.89in /  1012.1hPa SW 7.0mph /  11.3km/h 8.0mph /  12.9km/h 71% 0.00in /  0mm
14:58 85.6 °F /  29.8 °C 75.5 °F /  24.2 °C 29.88in /  1011.7hPa SW 5.0mph /  8km/h 8.0mph /  12.9km/h 72% 0.00in /  0mm
15:03 85.9 °F /  29.9 °C 75.0 °F /  23.9 °C 29.88in /  1011.7hPa SW 6.0mph /  9.7km/h 9.0mph /  14.5km/h 70% 0.00in /  0mm
15:08 86.0 °F /  30 °C 74.7 °F /  23.7 °C 29.88in /  1011.7hPa WSW 4.0mph /  6.4km/h 8.0mph /  12.9km/h 69% 0.00in /  0mm
15:13 86.3 °F /  30.2 °C 75.4 °F /  24.1 °C 29.88in /  1011.7hPa SW 7.0mph /  11.3km/h 7.0mph /  11.3km/h 70% 0.00in /  0mm
15:18 86.5 °F /  30.3 °C 75.6 °F /  24.2 °C 29.88in /  1011.7hPa South 4.0mph /  6.4km/h 6.0mph /  9.7km/h 70% 0.00in /  0mm
15:23 86.5 °F /  30.3 °C 74.2 °F /  23.4 °C 29.88in /  1011.7hPa SW 2.0mph /  3.2km/h 7.0mph /  11.3km/h 67% 0.00in /  0mm
15:28 86.0 °F /  30 °C 74.7 °F /  23.7 °C 29.88in /  1011.7hPa SSE 1.0mph /  1.6km/h 5.0mph /  8km/h 69% 0.00in /  0mm
15:33 85.9 °F /  29.9 °C 75.0 °F /  23.9 °C 29.88in /  1011.7hPa SW 5.0mph /  8km/h 5.0mph /  8km/h 70% 0.00in /  0mm
15:38 85.6 °F /  29.8 °C 74.7 °F /  23.7 °C 29.88in /  1011.7hPa SW 5.0mph /  8km/h 5.0mph /  8km/h 70% 0.00in /  0mm
15:43 85.6 °F /  29.8 °C 74.7 °F /  23.7 °C 29.87in /  1011.4hPa SSW 2.0mph /  3.2km/h 4.0mph /  6.4km/h 70% 0.00in /  0mm
15:48 85.6 °F /  29.8 °C 74.3 °F /  23.5 °C 29.87in /  1011.4hPa SW 3.0mph /  4.8km/h 5.0mph /  8km/h 69% 0.00in /  0mm
15:53 86.0 °F /  30 °C 75.1 °F /  23.9 °C 29.87in /  1011.4hPa SW 4.0mph /  6.4km/h 5.0mph /  8km/h 70% 0.00in /  0mm
15:58 86.6 °F /  30.3 °C 75.2 °F /  24 °C 29.87in /  1011.4hPa SSW 5.0mph /  8km/h 7.0mph /  11.3km/h 69% 0.00in /  0mm
16:03 87.0 °F /  30.6 °C 75.2 °F /  24 °C 29.86in /  1011.1hPa South 5.0mph /  8km/h 6.0mph /  9.7km/h 68% 0.00in /  0mm
16:08 87.3 °F /  30.7 °C 74.1 °F /  23.4 °C 29.86in /  1011.1hPa SE 5.0mph /  8km/h 7.0mph /  11.3km/h 65% 0.00in /  0mm
16:13 87.5 °F /  30.8 °C 74.3 °F /  23.5 °C 29.86in /  1011.1hPa SSE 6.0mph /  9.7km/h 7.0mph /  11.3km/h 65% 0.00in /  0mm
16:18 87.5 °F /  30.8 °C 74.8 °F /  23.8 °C 29.86in /  1011.1hPa SW 5.0mph /  8km/h 9.0mph /  14.5km/h 66% 0.00in /  0mm
16:23 87.8 °F /  31 °C 75.5 °F /  24.2 °C 29.85in /  1010.7hPa WSW 8.0mph /  12.9km/h 8.0mph /  12.9km/h 67% 0.00in /  0mm
16:28 87.9 °F /  31.1 °C 74.7 °F /  23.7 °C 29.85in /  1010.7hPa SSE 4.0mph /  6.4km/h 7.0mph /  11.3km/h 65% 0.00in /  0mm
16:33 88.0 °F /  31.1 °C 75.2 °F /  24 °C 29.85in /  1010.7hPa SSW 5.0mph /  8km/h 5.0mph /  8km/h 66% 0.00in /  0mm
16:39 87.9 °F /  31.1 °C 76.0 °F /  24.4 °C 29.85in /  1010.7hPa South 9.0mph /  14.5km/h 9.0mph /  14.5km/h 68% 0.00in /  0mm
16:44 88.1 °F /  31.2 °C 75.3 °F /  24.1 °C 29.85in /  1010.7hPa West 4.0mph /  6.4km/h 6.0mph /  9.7km/h 66% 0.00in /  0mm
16:49 88.2 °F /  31.2 °C 75.4 °F /  24.1 °C 29.84in /  1010.4hPa WSW 3.0mph /  4.8km/h 8.0mph /  12.9km/h 66% 0.00in /  0mm
16:54 88.3 °F /  31.3 °C 75.5 °F /  24.2 °C 29.84in /  1010.4hPa South 4.0mph /  6.4km/h 7.0mph /  11.3km/h 66% 0.00in /  0mm
16:59 88.4 °F /  31.3 °C 75.1 °F /  23.9 °C 29.84in /  1010.4hPa SSW 5.0mph /  8km/h 7.0mph /  11.3km/h 65% 0.00in /  0mm
17:04 88.6 °F /  31.4 °C 75.3 °F /  24.1 °C 29.84in /  1010.4hPa SW 3.0mph /  4.8km/h 10.0mph /  16.1km/h 65% 0.00in /  0mm
17:09 89.0 °F /  31.7 °C 76.6 °F /  24.8 °C 29.84in /  1010.4hPa SSW 4.0mph /  6.4km/h 7.0mph /  11.3km/h 67% 0.00in /  0mm
17:14 89.0 °F /  31.7 °C 75.2 °F /  24 °C 29.84in /  1010.4hPa SW 5.0mph /  8km/h 8.0mph /  12.9km/h 64% 0.00in /  0mm
17:19 88.4 °F /  31.3 °C 75.1 °F /  23.9 °C 29.84in /  1010.4hPa South 3.0mph /  4.8km/h 6.0mph /  9.7km/h 65% 0.00in /  0mm
17:24 88.1 °F /  31.2 °C 75.8 °F /  24.3 °C 29.84in /  1010.4hPa SSE 4.0mph /  6.4km/h 6.0mph /  9.7km/h 67% 0.00in /  0mm
17:29 87.7 °F /  30.9 °C 75.4 °F /  24.1 °C 29.84in /  1010.4hPa SSE 3.0mph /  4.8km/h 5.0mph /  8km/h 67% 0.00in /  0mm
17:34 87.7 °F /  30.9 °C 75.8 °F /  24.3 °C 29.84in /  1010.4hPa SSW 1.0mph /  1.6km/h 5.0mph /  8km/h 68% 0.00in /  0mm
17:39 87.7 °F /  30.9 °C 76.7 °F /  24.8 °C 29.84in /  1010.4hPa SW 2.0mph /  3.2km/h 3.0mph /  4.8km/h 70% 0.00in /  0mm
17:44 87.5 °F /  30.8 °C 75.6 °F /  24.2 °C 29.84in /  1010.4hPa SSW 5.0mph /  8km/h 5.0mph /  8km/h 68% 0.00in /  0mm
17:49 87.4 °F /  30.8 °C 75.6 °F /  24.2 °C 29.83in /  1010hPa SW 3.0mph /  4.8km/h 5.0mph /  8km/h 68% 0.00in /  0mm
17:54 87.2 °F /  30.7 °C 75.8 °F /  24.3 °C 29.83in /  1010hPa SW 2.0mph /  3.2km/h 6.0mph /  9.7km/h 69% 0.00in /  0mm
18:00 87.0 °F /  30.6 °C 75.6 °F /  24.2 °C 29.83in /  1010hPa SW 3.0mph /  4.8km/h 5.0mph /  8km/h 69% 0.00in /  0mm
18:05 87.1 °F /  30.6 °C 75.7 °F /  24.3 °C 29.83in /  1010hPa SW 2.0mph /  3.2km/h 5.0mph /  8km/h 69% 0.00in /  0mm
18:10 87.6 °F /  30.9 °C 76.6 °F /  24.8 °C 29.83in /  1010hPa SW 4.0mph /  6.4km/h 5.0mph /  8km/h 70% 0.00in /  0mm
18:15 87.7 °F /  30.9 °C 76.7 °F /  24.8 °C 29.82in /  1009.7hPa SW 3.0mph /  4.8km/h 4.0mph /  6.4km/h 70% 0.00in /  0mm
18:20 88.2 °F /  31.2 °C 76.8 °F /  24.9 °C 29.83in /  1010hPa South 4.0mph /  6.4km/h 4.0mph /  6.4km/h 69% 0.00in /  0mm
18:25 88.6 °F /  31.4 °C 76.7 °F /  24.8 °C 29.83in /  1010hPa SSW 6.0mph /  9.7km/h 6.0mph /  9.7km/h 68% 0.00in /  0mm
18:30 88.9 °F /  31.6 °C 76.1 °F /  24.5 °C 29.82in /  1009.7hPa SE 3.0mph /  4.8km/h 7.0mph /  11.3km/h 66% 0.00in /  0mm
18:35 88.7 °F /  31.5 °C 75.9 °F /  24.4 °C 29.82in /  1009.7hPa SSE 3.0mph /  4.8km/h 7.0mph /  11.3km/h 66% 0.00in /  0mm
18:40 89.0 °F /  31.7 °C 76.2 °F /  24.6 °C 29.83in /  1010hPa SSW 5.0mph /  8km/h 6.0mph /  9.7km/h 66% 0.00in /  0mm
18:45 89.4 °F /  31.9 °C 77.0 °F /  25 °C 29.83in /  1010hPa SSW 2.0mph /  3.2km/h 4.0mph /  6.4km/h 67% 0.00in /  0mm
18:50 89.9 °F /  32.2 °C 77.5 °F /  25.3 °C 29.83in /  1010hPa SW 3.0mph /  4.8km/h 4.0mph /  6.4km/h 67% 0.00in /  0mm
18:55 90.0 °F /  32.2 °C 77.1 °F /  25.1 °C 29.82in /  1009.7hPa WSW 3.0mph /  4.8km/h 4.0mph /  6.4km/h 66% 0.00in /  0mm
19:00 90.4 °F /  32.4 °C 77.9 °F /  25.5 °C 29.83in /  1010hPa South 2.0mph /  3.2km/h 2.0mph /  3.2km/h 67% 0.00in /  0mm
19:05 90.4 °F /  32.4 °C 77.0 °F /  25 °C 29.83in /  1010hPa SSW 3.0mph /  4.8km/h 6.0mph /  9.7km/h 65% 0.00in /  0mm
19:10 90.1 °F /  32.3 °C 77.2 °F /  25.1 °C 29.83in /  1010hPa SW 3.0mph /  4.8km/h 4.0mph /  6.4km/h 66% 0.00in /  0mm
19:15 89.6 °F /  32 °C 77.2 °F /  25.1 °C 29.83in /  1010hPa South 5.0mph /  8km/h 5.0mph /  8km/h 67% 0.00in /  0mm
19:21 89.6 °F /  32 °C 77.2 °F /  25.1 °C 29.83in /  1010hPa SW 6.0mph /  9.7km/h 6.0mph /  9.7km/h 67% 0.00in /  0mm
19:26 89.4 °F /  31.9 °C 77.0 °F /  25 °C 29.83in /  1010hPa SW 1.0mph /  1.6km/h 4.0mph /  6.4km/h 67% 0.00in /  0mm
19:31 89.1 °F /  31.7 °C 76.7 °F /  24.8 °C 29.83in /  1010hPa SE 4.0mph /  6.4km/h 6.0mph /  9.7km/h 67% 0.00in /  0mm
19:36 89.0 °F /  31.7 °C 77.1 °F /  25.1 °C 29.83in /  1010hPa SSW 2.0mph /  3.2km/h 5.0mph /  8km/h 68% 0.00in /  0mm
19:41 88.9 °F /  31.6 °C 77.4 °F /  25.2 °C 29.83in /  1010hPa South 2.0mph /  3.2km/h 4.0mph /  6.4km/h 69% 0.00in /  0mm
19:46 88.8 °F /  31.6 °C 77.3 °F /  25.2 °C 29.83in /  1010hPa SSE 3.0mph /  4.8km/h 3.0mph /  4.8km/h 69% 0.00in /  0mm
19:52 88.8 °F /  31.6 °C 77.3 °F /  25.2 °C 29.83in /  1010hPa South 4.0mph /  6.4km/h 4.0mph /  6.4km/h 69% 0.00in /  0mm
19:57 88.7 °F /  31.5 °C 76.8 °F /  24.9 °C 29.83in /  1010hPa South 1.0mph /  1.6km/h 3.0mph /  4.8km/h 68% 0.00in /  0mm
20:02 88.7 °F /  31.5 °C 77.7 °F /  25.4 °C 29.83in /  1010hPa Calm   3.0mph /  4.8km/h 70% 0.00in /  0mm
20:07 88.5 °F /  31.4 °C 77.0 °F /  25 °C 29.83in /  1010hPa SSE 2.0mph /  3.2km/h 3.0mph /  4.8km/h 69% 0.00in /  0mm
20:12 87.8 °F /  31 °C 76.8 °F /  24.9 °C 29.83in /  1010hPa SSE 2.0mph /  3.2km/h 3.0mph /  4.8km/h 70% 0.00in /  0mm
20:17 87.2 °F /  30.7 °C 76.7 °F /  24.8 °C 29.83in /  1010hPa SSE 1.0mph /  1.6km/h 2.0mph /  3.2km/h 71% 0.00in /  0mm
20:22 86.5 °F /  30.3 °C 77.2 °F /  25.1 °C 29.83in /  1010hPa SE 1.0mph /  1.6km/h 2.0mph /  3.2km/h 74% 0.00in /  0mm
20:27 85.6 °F /  29.8 °C 77.2 °F /  25.1 °C 29.83in /  1010hPa SE 1.0mph /  1.6km/h 1.0mph /  1.6km/h 76% 0.00in /  0mm
20:32 85.0 °F /  29.4 °C 76.6 °F /  24.8 °C 29.83in /  1010hPa SE 1.0mph /  1.6km/h 2.0mph /  3.2km/h 76% 0.00in /  0mm
20:37 84.8 °F /  29.3 °C 76.8 °F /  24.9 °C 29.83in /  1010hPa Calm   2.0mph /  3.2km/h 77% 0.00in /  0mm
20:42 84.5 °F /  29.2 °C 76.9 °F /  24.9 °C 29.83in /  1010hPa SE 1.0mph /  1.6km/h 2.0mph /  3.2km/h 78% 0.00in /  0mm
20:47 84.1 °F /  28.9 °C 76.9 °F /  24.9 °C 29.84in /  1010.4hPa East 1.0mph /  1.6km/h 2.0mph /  3.2km/h 79% 0.00in /  0mm
20:52 83.7 °F /  28.7 °C 76.9 °F /  24.9 °C 29.84in /  1010.4hPa ESE 1.0mph /  1.6km/h 2.0mph /  3.2km/h 80% 0.00in /  0mm
20:57 83.5 °F /  28.6 °C 77.1 °F /  25.1 °C 29.84in /  1010.4hPa ESE 3.0mph /  4.8km/h 3.0mph /  4.8km/h 81% 0.00in /  0mm
21:02 83.1 °F /  28.4 °C 77.0 °F /  25 °C 29.84in /  1010.4hPa ESE 2.0mph /  3.2km/h 3.0mph /  4.8km/h 82% 0.00in /  0mm
21:07 82.9 °F /  28.3 °C 76.8 °F /  24.9 °C 29.84in /  1010.4hPa ESE 2.0mph /  3.2km/h 3.0mph /  4.8km/h 82% 0.00in /  0mm
21:12 82.7 °F /  28.2 °C 76.7 °F /  24.8 °C 29.84in /  1010.4hPa SE 2.0mph /  3.2km/h 3.0mph /  4.8km/h 82% 0.00in /  0mm
21:17 82.7 °F /  28.2 °C 76.7 °F /  24.8 °C 29.85in /  1010.7hPa ESE 3.0mph /  4.8km/h 4.0mph /  6.4km/h 82% 0.00in /  0mm
21:22 82.7 °F /  28.2 °C 76.7 °F /  24.8 °C 29.85in /  1010.7hPa SE 2.0mph /  3.2km/h 5.0mph /  8km/h 82% 0.00in /  0mm
21:27 82.7 °F /  28.2 °C 76.3 °F /  24.6 °C 29.85in /  1010.7hPa SE 2.0mph /  3.2km/h 4.0mph /  6.4km/h 81% 0.00in /  0mm
21:32 82.8 °F /  28.2 °C 76.0 °F /  24.4 °C 29.85in /  1010.7hPa SE 5.0mph /  8km/h 5.0mph /  8km/h 80% 0.00in /  0mm
21:38 82.9 °F /  28.3 °C 76.1 °F /  24.5 °C 29.86in /  1011.1hPa ESE 2.0mph /  3.2km/h 4.0mph /  6.4km/h 80% 0.00in /  0mm
21:43 82.7 °F /  28.2 °C 75.9 °F /  24.4 °C 29.85in /  1010.7hPa ESE 4.0mph /  6.4km/h 4.0mph /  6.4km/h 80% 0.00in /  0mm
21:48 82.5 °F /  28.1 °C 76.1 °F /  24.5 °C 29.85in /  1010.7hPa East 2.0mph /  3.2km/h 4.0mph /  6.4km/h 81% 0.00in /  0mm
21:53 82.1 °F /  27.8 °C 76.1 °F /  24.5 °C 29.86in /  1011.1hPa ESE 1.0mph /  1.6km/h 2.0mph /  3.2km/h 82% 0.00in /  0mm
21:58 81.7 °F /  27.6 °C 76.0 °F /  24.4 °C 29.86in /  1011.1hPa ESE 2.0mph /  3.2km/h 2.0mph /  3.2km/h 83% 0.00in /  0mm
22:03 81.4 °F /  27.4 °C 76.1 °F /  24.5 °C 29.86in /  1011.1hPa ESE 1.0mph /  1.6km/h 2.0mph /  3.2km/h 84% 0.00in /  0mm
22:08 81.3 °F /  27.4 °C 76.0 °F /  24.4 °C 29.86in /  1011.1hPa ESE 1.0mph /  1.6km/h 2.0mph /  3.2km/h 84% 0.00in /  0mm
22:13 81.2 °F /  27.3 °C 75.9 °F /  24.4 °C 29.87in /  1011.4hPa ESE 1.0mph /  1.6km/h 1.0mph /  1.6km/h 84% 0.00in /  0mm
22:18 81.0 °F /  27.2 °C 76.1 °F /  24.5 °C 29.87in /  1011.4hPa SE 1.0mph /  1.6km/h 1.0mph /  1.6km/h 85% 0.00in /  0mm
22:23 80.9 °F /  27.2 °C 76.0 °F /  24.4 °C 29.87in /  1011.4hPa ESE 1.0mph /  1.6km/h 1.0mph /  1.6km/h 85% 0.00in /  0mm
22:28 80.9 °F /  27.2 °C 76.0 °F /  24.4 °C 29.88in /  1011.7hPa East 2.0mph /  3.2km/h 2.0mph /  3.2km/h 85% 0.00in /  0mm
22:33 80.9 °F /  27.2 °C 76.0 °F /  24.4 °C 29.88in /  1011.7hPa East 3.0mph /  4.8km/h 3.0mph /  4.8km/h 85% 0.00in /  0mm
22:38 80.8 °F /  27.1 °C 76.2 °F /  24.6 °C 29.88in /  1011.7hPa ESE 1.0mph /  1.6km/h 2.0mph /  3.2km/h 86% 0.00in /  0mm
22:43 80.5 °F /  26.9 °C 76.3 °F /  24.6 °C 29.87in /  1011.4hPa ESE 1.0mph /  1.6km/h 3.0mph /  4.8km/h 87% 0.00in /  0mm
22:48 80.2 °F /  26.8 °C 76.3 °F /  24.6 °C 29.87in /  1011.4hPa ESE 2.0mph /  3.2km/h 2.0mph /  3.2km/h 88% 0.00in /  0mm
22:53 80.0 °F /  26.7 °C 76.1 °F /  24.5 °C 29.87in /  1011.4hPa ESE 2.0mph /  3.2km/h 2.0mph /  3.2km/h 88% 0.00in /  0mm
22:58 79.8 °F /  26.6 °C 76.3 °F /  24.6 °C 29.88in /  1011.7hPa ESE 1.0mph /  1.6km/h 2.0mph /  3.2km/h 89% 0.00in /  0mm
23:03 79.8 °F /  26.6 °C 76.3 °F /  24.6 °C 29.88in /  1011.7hPa SE 2.0mph /  3.2km/h 3.0mph /  4.8km/h 89% 0.00in /  0mm
23:08 79.6 °F /  26.4 °C 76.1 °F /  24.5 °C 29.87in /  1011.4hPa ESE 2.0mph /  3.2km/h 3.0mph /  4.8km/h 89% 0.00in /  0mm
23:13 79.6 °F /  26.4 °C 76.1 °F /  24.5 °C 29.87in /  1011.4hPa SE 3.0mph /  4.8km/h 3.0mph /  4.8km/h 89% 0.00in /  0mm
23:19 79.6 °F /  26.4 °C 76.1 °F /  24.5 °C 29.87in /  1011.4hPa SE 2.0mph /  3.2km/h 4.0mph /  6.4km/h 89% 0.00in /  0mm
23:24 79.7 °F /  26.5 °C 75.8 °F /  24.3 °C 29.88in /  1011.7hPa SE 4.0mph /  6.4km/h 4.0mph /  6.4km/h 88% 0.00in /  0mm
23:29 80.0 °F /  26.7 °C 75.8 °F /  24.3 °C 29.88in /  1011.7hPa SE 4.0mph /  6.4km/h 6.0mph /  9.7km/h 87% 0.00in /  0mm
23:34 80.2 °F /  26.8 °C 76.0 °F /  24.4 °C 29.88in /  1011.7hPa SE 3.0mph /  4.8km/h 5.0mph /  8km/h 87% 0.00in /  0mm
23:39 80.2 °F /  26.8 °C 76.0 °F /  24.4 °C 29.88in /  1011.7hPa ESE 3.0mph /  4.8km/h 4.0mph /  6.4km/h 87% 0.00in /  0mm
23:44 80.1 °F /  26.7 °C 75.9 °F /  24.4 °C 29.88in /  1011.7hPa ESE 3.0mph /  4.8km/h 5.0mph /  8km/h 87% 0.00in /  0mm
23:49 80.1 °F /  26.7 °C 75.9 °F /  24.4 °C 29.88in /  1011.7hPa ESE 2.0mph /  3.2km/h 4.0mph /  6.4km/h 87% 0.00in /  0mm
23:54 80.0 °F /  26.7 °C 75.8 °F /  24.3 °C 29.88in /  1011.7hPa ESE 3.0mph /  4.8km/h 3.0mph /  4.8km/h 87% 0.00in /  0mm
23:59 79.8 °F /  26.6 °C 75.6 °F /  24.2 °C 29.88in /  1011.7hPa ESE 2.0mph /  3.2km/h 3.0mph /  4.8km/h 87% 0.00in /  0mm
Compliments of Weather Underground